Time;durP1;ratioP1;P1;durP2;ratioP2;P2;SDS_P1;SDS_P2;PMS_P1;PMS_P2;Temp;Humidity;BMP_temperature;BMP_pressure;BME280_temperature;BME280_humidity;BME280_pressure;Samples;Min_cycle;Max_cycle;Signal;HPM_P1;HPM_P2
2021/07/10 00:03:15;;;;;;;17.53;6.93;;;;;;;20.07;65.46;100809.22;125266;1102;104146;-79
2021/07/10 00:05:47;;;;;;;15.87;6.73;;;;;;;20.03;65.50;100809.20;125159;1102;104217;-79
2021/07/10 00:08:17;;;;;;;16.60;7.23;;;;;;;19.97;66.60;100810.07;125212;1102;104143;-79
2021/07/10 00:10:48;;;;;;;14.73;7.10;;;;;;;19.92;66.61;100807.39;125181;1102;104229;-79
2021/07/10 00:13:19;;;;;;;16.33;7.00;;;;;;;19.89;66.05;100807.39;125183;1102;104159;-80
2021/07/10 00:15:50;;;;;;;14.10;6.67;;;;;;;19.87;66.51;100814.50;125238;1102;104627;-79
2021/07/10 00:18:21;;;;;;;17.23;7.10;;;;;;;19.85;66.59;100815.37;125184;1102;104296;-80
2021/07/10 00:20:52;;;;;;;18.30;7.33;;;;;;;19.85;66.34;100810.04;124945;1102;104157;-81
2021/07/10 00:23:23;;;;;;;17.20;6.87;;;;;;;19.84;66.12;100814.48;125108;1102;104153;-79
2021/07/10 00:25:54;;;;;;;13.00;6.73;;;;;;;19.85;66.99;100816.28;125153;1102;104216;-80
2021/07/10 00:28:24;;;;;;;15.03;7.00;;;;;;;19.84;66.70;100814.48;124954;1102;104150;-80
2021/07/10 00:30:55;;;;;;;14.07;7.07;;;;;;;19.83;67.45;100819.81;125222;1102;104204;-79
2021/07/10 00:33:27;;;;;;;15.40;6.77;;;;;;;19.80;67.45;100820.67;125191;1102;104149;-79
2021/07/10 00:35:58;;;;;;;15.00;6.40;;;;;;;19.82;67.21;100820.69;125255;1102;104156;-80
2021/07/10 00:38:28;;;;;;;15.47;6.97;;;;;;;19.85;67.36;100818.03;125143;1102;104174;-79
2021/07/10 00:41:01;;;;;;;17.07;6.47;;;;;;;19.78;67.64;100816.25;125183;1102;104146;-81
2021/07/10 00:43:34;;;;;;;15.13;6.73;;;;;;;19.71;67.89;100807.30;124979;1102;104178;-79
2021/07/10 00:46:08;;;;;;;14.07;6.63;;;;;;;19.66;67.33;100809.95;125213;1102;104765;-80
2021/07/10 00:48:39;;;;;;;14.03;6.37;;;;;;;19.62;68.34;100813.51;125165;1102;104304;-79
2021/07/10 00:51:12;;;;;;;17.83;6.63;;;;;;;19.57;67.85;100815.23;125008;1102;104576;-80
2021/07/10 00:53:43;;;;;;;21.70;7.10;;;;;;;19.55;68.30;100817.89;125221;1102;104162;-80
2021/07/10 00:56:16;;;;;;;11.83;6.40;;;;;;;19.54;68.43;100820.55;125186;1102;104140;-78
2021/07/10 00:58:51;;;;;;;18.37;7.27;;;;;;;19.48;68.81;100821.44;125183;1102;104153;-80
2021/07/10 01:01:25;;;;;;;17.97;6.40;;;;;;;19.44;68.65;100819.63;125257;1102;104361;-80
2021/07/10 01:03:57;;;;;;;11.90;6.30;;;;;;;19.40;68.48;100815.20;125133;1102;104181;-79
2021/07/10 01:06:31;;;;;;;19.17;6.60;;;;;;;19.38;68.63;100811.62;125262;1102;104229;-79
2021/07/10 01:09:02;;;;;;;12.27;6.50;;;;;;;19.34;68.50;100807.19;125237;1099;104239;-80
2021/07/10 01:11:33;;;;;;;14.77;6.63;;;;;;;19.33;68.87;100814.27;125346;1099;104153;-79
2021/07/10 01:14:05;;;;;;;14.40;6.00;;;;;;;19.39;69.16;100814.29;125125;1099;104145;-80
2021/07/10 01:16:35;;;;;;;12.97;6.10;;;;;;;19.44;69.28;100813.43;125162;1099;104165;-80
2021/07/10 01:19:11;;;;;;;15.13;6.23;;;;;;;19.41;69.25;100822.28;125211;1102;104268;-80
2021/07/10 01:21:49;;;;;;;14.93;6.60;;;;;;;19.32;69.21;100823.15;125183;1099;104264;-79
2021/07/10 01:24:18;;;;;;;;;;;;;;;19.24;69.81;100819.53;125309;1099;104616;-79
2021/07/10 01:26:49;;;;;;;15.07;6.23;;;;;;;19.21;69.34;100819.52;125196;1099;104201;-79
2021/07/10 01:29:20;;;;;;;13.67;5.63;;;;;;;19.22;69.92;100829.28;125261;1099;104424;-80
2021/07/10 01:31:53;;;;;;;12.53;6.23;;;;;;;19.22;69.94;100813.33;125192;1099;104143;-80
2021/07/10 01:34:25;;;;;;;17.03;7.10;;;;;;;19.22;69.68;100805.34;125133;1099;104159;-80
2021/07/10 01:36:56;;;;;;;16.03;6.37;;;;;;;19.19;69.65;100808.87;125227;1102;104185;-80
2021/07/10 01:39:27;;;;;;;11.13;6.17;;;;;;;19.18;70.10;100814.18;125264;1099;104159;-80
2021/07/10 01:41:57;;;;;;;16.33;6.57;;;;;;;19.15;70.07;100819.48;125255;1099;104249;-81
2021/07/10 01:44:28;;;;;;;13.53;6.20;;;;;;;19.14;69.79;100823.05;125161;1099;104274;-80
2021/07/10 01:46:59;;;;;;;12.67;6.00;;;;;;;19.14;70.53;100825.70;125278;1099;104249;-79
2021/07/10 01:49:29;;;;;;;10.07;5.70;;;;;;;19.12;70.02;100828.36;125232;1099;104570;-82
2021/07/10 01:52:00;;;;;;;12.57;6.27;;;;;;;19.14;69.85;100831.02;125212;1099;104165;-81
2021/07/10 01:54:31;;;;;;;13.97;5.90;;;;;;;19.17;70.47;100831.92;125191;1099;104194;-80
2021/07/10 01:57:06;;;;;;;14.57;6.47;;;;;;;19.15;70.48;100819.48;125286;1099;104134;-81
2021/07/10 01:59:39;;;;;;;16.30;6.17;;;;;;;19.12;70.36;100822.12;125254;1099;104629;-79
2021/07/10 02:02:10;;;;;;;13.53;6.17;;;;;;;19.08;70.13;100821.23;125252;1099;104143;-79
2021/07/10 02:04:49;;;;;;;13.80;6.17;;;;;;;19.04;71.03;100817.67;125230;1099;104212;-78
2021/07/10 02:07:21;;;;;;;16.23;6.37;;;;;;;19.01;70.13;100819.40;125196;1100;104245;-79
2021/07/10 02:09:53;;;;;;;14.83;6.50;;;;;;;19.06;70.71;100817.68;125190;1102;104144;-81
2021/07/10 02:12:27;;;;;;;11.47;6.10;;;;;;;19.07;70.97;100823.87;125213;1099;104692;-81
2021/07/10 02:14:59;;;;;;;12.50;5.80;;;;;;;19.07;70.39;100818.56;125240;1102;104204;-80
2021/07/10 02:17:30;;;;;;;13.70;6.20;;;;;;;19.06;70.88;100809.70;125264;1099;104155;-79
2021/07/10 02:20:03;;;;;;;16.83;6.17;;;;;;;19.03;70.75;100807.91;125226;1099;104143;-79
2021/07/10 02:22:34;;;;;;;12.80;5.80;;;;;;;19.00;70.93;100810.55;125218;1099;104147;-80
2021/07/10 02:25:07;;;;;;;14.30;5.87;;;;;;;19.01;71.01;100803.45;125176;1102;104246;-81
2021/07/10 02:27:40;;;;;;;13.30;5.77;;;;;;;19.02;70.59;100808.77;125257;1099;104591;-81
2021/07/10 02:30:17;;;;;;;15.07;6.30;;;;;;;19.08;70.88;100799.95;125252;1099;104217;-80
2021/07/10 02:32:49;;;;;;;61.73;13.77;;;;;;;19.10;71.06;100799.95;125255;1099;104306;-80
2021/07/10 02:35:20;;;;;;;17.17;6.83;;;;;;;19.03;71.30;100799.05;125263;1099;104223;-79
2021/07/10 02:37:51;;;;;;;13.50;5.70;;;;;;;18.93;71.15;100789.22;125275;1099;104223;-79
2021/07/10 02:40:23;;;;;;;13.93;5.90;;;;;;;18.87;71.02;100792.75;125191;1102;104225;-80
2021/07/10 02:42:55;;;;;;;13.83;6.50;;;;;;;18.83;71.72;100798.89;125197;1098;104172;-79
2021/07/10 02:45:26;;;;;;;10.70;5.47;;;;;;;18.78;71.40;100797.97;125207;1099;105473;-79
2021/07/10 02:47:57;;;;;;;12.63;6.00;;;;;;;18.74;71.32;100797.05;125275;1102;104149;-79
2021/07/10 02:50:28;;;;;;;13.47;5.90;;;;;;;18.72;71.73;100789.96;125338;1099;104139;-79
2021/07/10 02:53:01;;;;;;;12.83;6.13;;;;;;;18.71;71.50;100793.48;125296;1102;104246;-79
2021/07/10 02:55:36;;;;;;;12.47;5.83;;;;;;;18.69;71.83;100797.02;125235;1099;104147;-81
2021/07/10 02:58:08;;;;;;;13.00;6.20;;;;;;;18.69;71.86;100797.02;125184;1102;104233;-80
2021/07/10 03:00:41;;;;;;;14.63;6.40;;;;;;;18.67;71.98;100796.13;125255;1102;104139;-79
2021/07/10 03:03:14;;;;;;;14.37;6.67;;;;;;;18.66;72.18;100794.33;125225;1099;104152;-83
2021/07/10 03:05:47;;;;;;;15.17;6.47;;;;;;;18.64;72.02;100793.44;125198;1099;104169;-80
2021/07/10 03:08:21;;;;;;;16.43;6.53;;;;;;;18.64;71.97;100788.12;125196;1102;104306;-81
2021/07/10 03:10:53;;;;;;;11.20;5.83;;;;;;;18.67;71.86;100784.61;125302;1099;104354;-80
2021/07/10 03:13:26;;;;;;;12.47;6.30;;;;;;;18.70;71.74;100784.62;125189;1102;104281;-79
2021/07/10 03:15:56;;;;;;;16.00;6.87;;;;;;;18.73;72.10;100787.31;125254;1099;104536;-80
2021/07/10 03:18:27;;;;;;;14.07;6.30;;;;;;;18.77;71.92;100793.53;125198;1099;104222;-80
2021/07/10 03:20:57;;;;;;;14.47;6.40;;;;;;;18.79;72.32;100789.10;125255;1099;104143;-81
2021/07/10 03:23:29;;;;;;;12.13;6.27;;;;;;;18.82;72.01;100789.13;125184;1099;104178;-79
2021/07/10 03:25:59;;;;;;;12.23;5.97;;;;;;;18.85;71.91;100792.75;125166;1098;104184;-80
2021/07/10 03:28:32;;;;;;;12.17;6.17;;;;;;;18.89;71.81;100792.77;125290;1102;104140;-80
2021/07/10 03:31:04;;;;;;;13.53;6.57;;;;;;;18.93;71.96;100790.13;125214;1099;104207;-79
2021/07/10 03:33:37;;;;;;;15.00;7.10;;;;;;;18.95;71.78;100783.05;125240;1099;104165;-83
2021/07/10 03:36:08;;;;;;;18.80;6.40;;;;;;;18.96;72.15;100786.58;125205;1099;105473;-79
2021/07/10 03:38:41;;;;;;;14.30;6.53;;;;;;;18.98;72.06;100783.06;125209;1099;104761;-79
2021/07/10 03:41:13;;;;;;;16.62;6.35;;;;;;;19.00;71.94;100781.30;125265;1099;104322;-79
2021/07/10 03:43:44;;;;;;;13.57;6.20;;;;;;;19.03;72.70;100783.97;125243;1099;104783;-79
2021/07/10 03:46:15;;;;;;;11.83;6.07;;;;;;;19.07;72.07;100783.98;126311;1099;104152;-80
2021/07/10 03:48:45;;;;;;;13.73;6.07;;;;;;;19.11;72.25;100791.11;126335;1099;104296;-81
2021/07/10 03:51:16;;;;;;;17.00;6.40;;;;;;;19.13;72.34;100792.87;126301;1099;104152;-80
2021/07/10 03:53:47;;;;;;;11.77;6.03;;;;;;;19.17;72.53;100788.48;126323;1099;104271;-79
2021/07/10 03:56:19;;;;;;;12.53;6.03;;;;;;;19.19;72.11;100786.71;126277;1099;104160;-81
2021/07/10 03:58:50;;;;;;;12.27;5.70;;;;;;;19.23;72.27;100785.86;126324;1099;117865;-80
2021/07/10 04:01:20;;;;;;;17.53;6.13;;;;;;;19.30;72.39;100786.77;125191;1099;104322;-80
2021/07/10 04:03:51;;;;;;;14.17;6.83;;;;;;;19.35;72.50;100788.58;126310;1099;104143;-80
2021/07/10 04:06:22;;;;;;;16.33;5.93;;;;;;;19.42;72.45;100785.94;126333;1099;104142;-80
2021/07/10 04:08:53;;;;;;;17.10;5.80;;;;;;;19.47;72.59;100789.50;126229;1099;104248;-80
2021/07/10 04:11:23;;;;;;;12.47;6.10;;;;;;;19.53;72.52;100786.86;125258;1099;104137;-80
2021/07/10 04:13:54;;;;;;;14.80;6.30;;;;;;;19.58;72.39;100779.77;126320;1099;104374;-79
2021/07/10 04:16:24;;;;;;;15.53;6.70;;;;;;;19.63;72.21;100775.33;125449;1099;104178;-81
2021/07/10 04:18:55;;;;;;;13.60;6.27;;;;;;;19.67;72.26;100770.93;126230;1099;104143;-80
2021/07/10 04:21:26;;;;;;;13.80;5.97;;;;;;;19.70;71.75;100782.47;126380;1099;104172;-81
2021/07/10 04:23:57;;;;;;;16.23;6.63;;;;;;;19.74;72.52;100772.70;125299;1099;104232;-79
2021/07/10 04:26:27;;;;;;;12.50;6.23;;;;;;;19.79;72.29;100780.73;125426;1099;104245;-80
2021/07/10 04:28:58;;;;;;;12.73;6.70;;;;;;;19.83;72.59;100772.76;125371;1099;104194;-79
2021/07/10 04:31:30;;;;;;;15.10;6.37;;;;;;;19.86;71.88;100774.55;126347;1099;104226;-80
2021/07/10 04:34:01;;;;;;;10.83;5.73;;;;;;;19.90;71.88;100771.89;126355;1099;104255;-80
2021/07/10 04:36:31;;;;;;;14.87;6.07;;;;;;;19.97;72.31;100769.24;126284;1099;104739;-80
2021/07/10 04:39:02;;;;;;;13.57;6.33;;;;;;;20.02;71.54;100768.34;126164;1099;104408;-80
2021/07/10 04:41:33;;;;;;;14.60;6.20;;;;;;;20.08;72.20;100756.81;125316;1099;104309;-79
2021/07/10 04:44:03;;;;;;;15.40;6.03;;;;;;;20.14;71.61;100759.48;125365;1099;104267;-79
2021/07/10 04:46:34;;;;;;;17.47;6.30;;;;;;;20.21;71.45;100765.70;126327;1099;104136;-79
2021/07/10 04:49:05;;;;;;;18.60;6.77;;;;;;;20.29;71.42;100771.94;125205;1099;104153;-80
2021/07/10 04:51:35;;;;;;;13.63;6.57;;;;;;;20.32;71.57;100766.61;126336;1099;104300;-80
2021/07/10 04:54:06;;;;;;;16.87;6.30;;;;;;;20.36;70.92;100767.48;126333;1099;104143;-80
2021/07/10 04:56:37;;;;;;;18.73;7.30;;;;;;;20.38;71.50;100768.36;126331;1099;104155;-80
2021/07/10 04:59:08;;;;;;;16.07;6.80;;;;;;;20.41;71.10;100763.94;125193;1102;104194;-81
2021/07/10 05:01:39;;;;;;;14.93;6.37;;;;;;;20.46;71.91;100762.15;126297;1099;104146;-80
2021/07/10 05:04:09;;;;;;;13.87;6.50;;;;;;;20.53;71.10;100762.14;126300;1099;104175;-81
2021/07/10 05:06:40;;;;;;;15.17;6.10;;;;;;;20.60;71.83;100762.14;125438;1099;104163;-80
2021/07/10 05:09:10;;;;;;;16.53;6.27;;;;;;;20.69;71.12;100763.03;125405;1099;104328;-80
2021/07/10 05:11:41;;;;;;;13.37;6.23;;;;;;;20.74;71.16;100758.58;126330;1099;104137;-79
2021/07/10 05:14:12;;;;;;;15.93;6.73;;;;;;;20.80;71.34;100764.80;126341;1099;104225;-80
2021/07/10 05:16:42;;;;;;;17.03;6.67;;;;;;;20.87;70.77;100751.45;126287;1098;104144;-80
2021/07/10 05:19:13;;;;;;;13.00;6.23;;;;;;;20.95;71.52;100750.52;126209;1099;104267;-80
2021/07/10 05:21:44;;;;;;;13.97;5.87;;;;;;;21.03;70.47;100753.16;126355;1099;104245;-80
2021/07/10 05:24:15;;;;;;;15.40;6.10;;;;;;;21.11;70.55;100762.02;126356;1099;104271;-80
2021/07/10 05:26:46;;;;;;;11.67;5.67;;;;;;;21.20;71.00;100755.78;125208;1099;104146;-81
2021/07/10 05:29:16;;;;;;;13.13;6.13;;;;;;;21.28;70.09;100758.41;126256;1099;104168;-81
2021/07/10 05:31:47;;;;;;;13.97;6.50;;;;;;;21.35;70.24;100752.17;126365;1099;104140;-81
2021/07/10 05:34:18;;;;;;;16.57;6.20;;;;;;;21.41;70.28;100743.22;126323;1099;104156;-81
2021/07/10 05:36:49;;;;;;;12.83;6.07;;;;;;;21.48;70.12;100743.18;126336;1099;104146;-79
2021/07/10 05:39:21;;;;;;;16.37;5.60;;;;;;;21.55;70.60;100746.77;126227;1099;104305;-80
2021/07/10 05:41:52;;;;;;;13.87;6.10;;;;;;;21.63;69.54;100746.69;125294;1099;104265;-79
2021/07/10 05:44:25;;;;;;;14.33;6.30;;;;;;;21.71;69.30;100745.75;126345;1099;104201;-80
2021/07/10 05:46:57;;;;;;;14.10;6.20;;;;;;;21.79;69.12;100753.72;126312;1099;104137;-80
2021/07/10 05:49:27;;;;;;;18.93;6.30;;;;;;;21.87;69.43;100749.20;126294;1099;104193;-80
2021/07/10 05:51:58;;;;;;;13.97;6.20;;;;;;;21.93;69.22;100748.28;126345;1099;104147;-80
2021/07/10 05:54:28;;;;;;;12.87;5.87;;;;;;;22.00;68.89;100744.69;126299;1099;104306;-80
2021/07/10 05:56:59;;;;;;;12.35;6.05;;;;;;;22.10;69.27;100756.18;126356;1099;104216;-80
2021/07/10 05:59:30;;;;;;;16.53;6.77;;;;;;;22.18;68.35;100751.65;126202;1098;104146;-80
2021/07/10 06:02:06;;;;;;;14.13;6.83;;;;;;;22.25;68.51;100752.47;126317;1099;104239;-81
2021/07/10 06:04:37;;;;;;;14.83;6.37;;;;;;;22.35;68.93;100751.55;126335;1099;104325;-80
2021/07/10 06:07:09;;;;;;;15.90;6.70;;;;;;;22.45;68.32;100746.98;126268;1099;104284;-79
2021/07/10 06:09:40;;;;;;;13.47;6.63;;;;;;;22.52;68.67;100753.19;126277;1099;104245;-80
2021/07/10 06:12:11;;;;;;;15.03;7.07;;;;;;;22.58;68.66;100753.13;125260;1099;104150;-80
2021/07/10 06:14:42;;;;;;;15.37;7.37;;;;;;;22.66;68.29;100756.60;126359;1099;104248;-80
2021/07/10 06:17:12;;;;;;;12.87;6.83;;;;;;;22.72;68.11;100745.84;126332;1099;104139;-81
2021/07/10 06:19:43;;;;;;;17.77;6.90;;;;;;;22.78;68.27;100752.89;125410;1099;104289;-81
2021/07/10 06:22:14;;;;;;;14.37;6.30;;;;;;;22.86;68.27;100752.81;126324;1099;104201;-80
2021/07/10 06:24:45;;;;;;;14.83;7.13;;;;;;;22.96;68.10;100754.50;126335;1098;104144;-80
2021/07/10 06:27:15;;;;;;;18.30;7.07;;;;;;;23.06;67.98;100755.27;126352;1099;104165;-80
2021/07/10 06:29:46;;;;;;;20.67;7.27;;;;;;;23.17;67.94;100756.08;126246;1099;104139;-81
2021/07/10 06:32:17;;;;;;;15.07;7.27;;;;;;;23.24;67.43;100755.08;125198;1099;104368;-80
2021/07/10 06:34:47;;;;;;;17.20;7.17;;;;;;;23.29;67.55;100758.58;126354;1099;104153;-81
2021/07/10 06:37:20;;;;;;;13.27;6.70;;;;;;;23.35;67.32;100746.03;126330;1099;104204;-81
2021/07/10 06:39:50;;;;;;;19.53;6.70;;;;;;;23.43;67.37;100747.69;126227;1099;104156;-80
2021/07/10 06:42:22;;;;;;;17.20;7.17;;;;;;;23.57;67.04;100746.63;126362;1099;104217;-80
2021/07/10 06:44:52;;;;;;;19.97;7.03;;;;;;;23.71;67.07;100749.98;125229;1099;104297;-80
2021/07/10 06:47:23;;;;;;;18.87;6.60;;;;;;;23.84;66.58;100746.26;126322;1099;104245;-82
2021/07/10 06:49:54;;;;;;;16.20;7.53;;;;;;;23.97;66.33;100748.75;125316;1099;105299;-80
2021/07/10 06:52:25;;;;;;;20.30;7.70;;;;;;;24.09;66.09;100748.55;125289;1099;104143;-81
2021/07/10 06:54:55;;;;;;;20.17;7.10;;;;;;;24.15;66.04;100750.23;126314;1099;104258;-80
2021/07/10 06:57:26;;;;;;;17.37;7.30;;;;;;;24.24;65.76;100755.44;126311;1099;104313;-80
2021/07/10 06:59:57;;;;;;;18.97;7.23;;;;;;;24.33;65.83;100757.97;126268;1099;104168;-80
2021/07/10 07:02:27;;;;;;;18.10;7.63;;;;;;;24.45;65.67;100754.20;126359;1099;104156;-79
2021/07/10 07:04:58;;;;;;;24.07;7.23;;;;;;;24.60;65.09;100754.86;126337;1099;104277;-80
2021/07/10 07:07:29;;;;;;;19.70;7.30;;;;;;;24.76;65.55;100746.50;125360;1099;104255;-81
2021/07/10 07:10:00;;;;;;;19.17;7.20;;;;;;;24.89;65.11;100744.45;126308;1099;104453;-80
2021/07/10 07:12:30;;;;;;;22.37;7.87;;;;;;;25.03;64.65;100749.55;126299;1099;104136;-80
2021/07/10 07:15:01;;;;;;;19.33;7.83;;;;;;;25.19;64.61;100752.80;126330;1098;104264;-81
2021/07/10 07:17:31;;;;;;;18.20;7.30;;;;;;;25.36;64.13;100744.41;125416;1099;104322;-80
2021/07/10 07:20:04;;;;;;;17.20;7.30;;;;;;;25.55;64.00;100752.07;126344;1099;104218;-79
2021/07/10 07:22:35;;;;;;;20.87;7.57;;;;;;;25.74;63.61;100741.78;126177;1099;104615;-79
2021/07/10 07:25:07;;;;;;;16.13;7.10;;;;;;;25.93;63.40;100744.91;126336;1099;104174;-79
2021/07/10 07:27:38;;;;;;;16.77;6.83;;;;;;;26.10;63.18;100748.13;126312;1099;104286;-79
2021/07/10 07:30:11;;;;;;;22.53;7.93;;;;;;;26.30;62.16;100752.10;126325;1098;104143;-80
2021/07/10 07:32:42;;;;;;;19.47;6.83;;;;;;;26.37;62.35;100742.97;126292;1099;104152;-79
2021/07/10 07:35:16;;;;;;;16.35;7.30;;;;;;;26.45;61.96;100740.95;125201;1099;104612;-80
2021/07/10 07:37:47;;;;;;;21.75;6.90;;;;;;;26.63;61.71;100741.38;126293;1099;104197;-80
2021/07/10 07:40:19;;;;;;;15.97;7.13;;;;;;;26.84;61.32;100745.33;126342;1098;104153;-79
2021/07/10 07:42:50;;;;;;;18.53;6.90;;;;;;;26.95;61.11;100753.10;126264;1099;104644;-80
2021/07/10 07:45:21;;;;;;;17.87;6.77;;;;;;;26.99;61.25;100749.37;125214;1099;104150;-79
2021/07/10 07:47:54;;;;;;;21.93;6.90;;;;;;;27.02;60.79;100743.91;125098;1102;104191;-80
2021/07/10 07:50:25;;;;;;;19.67;6.87;;;;;;;27.19;60.38;100743.41;126333;1099;104188;-78
2021/07/10 07:52:56;;;;;;;20.33;6.73;;;;;;;27.46;59.92;100740.84;125182;1099;104224;-79
2021/07/10 07:55:27;;;;;;;17.80;6.90;;;;;;;27.63;59.12;100743.92;126332;1099;104288;-79
2021/07/10 07:57:57;;;;;;;15.43;6.40;;;;;;;27.77;58.48;100744.37;126368;1097;104223;-80
2021/07/10 08:00:28;;;;;;;19.40;5.73;;;;;;;27.80;58.40;100743.39;125229;1099;104363;-79
2021/07/10 08:02:59;;;;;;;14.97;6.30;;;;;;;27.84;58.66;100745.04;126257;1099;105289;-79
2021/07/10 08:05:30;;;;;;;16.33;6.47;;;;;;;27.93;57.81;100743.88;126306;1099;104181;-80
2021/07/10 08:08:01;;;;;;;16.43;6.80;;;;;;;28.01;57.76;100746.36;126375;1099;104287;-79
2021/07/10 08:10:32;;;;;;;16.03;6.60;;;;;;;28.10;57.65;100737.95;126290;1099;104236;-80
2021/07/10 08:13:02;;;;;;;15.63;6.93;;;;;;;28.20;56.72;100752.88;126261;1098;104152;-80
2021/07/10 08:15:33;;;;;;;18.37;6.27;;;;;;;28.27;56.44;100749.05;125295;1102;104316;-80
2021/07/10 08:18:04;;;;;;;15.90;6.50;;;;;;;28.40;56.33;100745.94;125278;1102;104275;-79
2021/07/10 08:20:35;;;;;;;16.00;6.57;;;;;;;28.49;55.93;100751.02;125330;1102;104139;-78
2021/07/10 08:23:07;;;;;;;13.50;6.03;;;;;;;28.63;55.71;100750.56;125217;1102;104290;-80
2021/07/10 08:25:38;;;;;;;17.10;5.57;;;;;;;28.78;55.65;100743.72;125268;1102;105143;-81
2021/07/10 08:28:08;;;;;;;12.23;6.03;;;;;;;28.86;55.12;100741.64;125281;1102;104289;-78
2021/07/10 08:30:39;;;;;;;16.60;5.83;;;;;;;28.91;54.57;100741.47;125278;1102;104198;-78
2021/07/10 08:33:12;;;;;;;14.63;6.10;;;;;;;29.02;54.56;100736.55;125232;1102;104287;-79
2021/07/10 08:35:42;;;;;;;15.67;5.90;;;;;;;29.16;53.73;100745.00;125260;1102;104303;-79
2021/07/10 08:38:13;;;;;;;12.80;5.73;;;;;;;29.25;51.49;100743.82;125263;1102;104274;-79
2021/07/10 08:40:44;;;;;;;13.70;5.35;;;;;;;29.26;50.38;100734.75;125277;1102;104141;-79
2021/07/10 08:43:16;;;;;;;10.90;5.10;;;;;;;29.31;49.94;100739.98;125273;1102;104195;-80
2021/07/10 08:45:50;;;;;;;10.23;5.03;;;;;;;29.45;50.24;100742.14;125396;1102;104338;-81
2021/07/10 08:48:37;;;;;;;10.67;5.30;;;;;;;29.64;49.86;100734.18;126307;1099;104152;-79
2021/07/10 08:51:10;;;;;;;15.37;5.70;;;;;;;29.85;48.07;100732.48;125202;1099;104175;-82
2021/07/10 08:53:42;;;;;;;10.97;5.57;;;;;;;30.13;47.60;100739.45;125316;1099;104289;-79
2021/07/10 08:56:14;;;;;;;12.00;5.00;;;;;;;30.18;47.68;100746.41;126316;1099;104155;-80
2021/07/10 08:58:45;;;;;;;;;;;;;;;30.21;44.93;100731.87;126409;1099;104143;-78
2021/07/10 09:01:18;;;;;;;8.10;4.47;;;;;;;30.29;46.70;100743.25;126232;1099;104274;-79
2021/07/10 09:03:49;;;;;;;11.03;4.50;;;;;;;30.25;46.08;100733.52;126192;1099;104146;-79
2021/07/10 09:06:20;;;;;;;9.87;4.70;;;;;;;30.21;46.08;100726.47;126345;1099;104159;-79
2021/07/10 09:08:56;;;;;;;9.23;4.43;;;;;;;30.21;44.86;100730.05;126311;1098;104316;-79
2021/07/10 09:11:27;;;;;;;8.23;4.60;;;;;;;30.20;44.31;100727.41;125399;1098;104166;-80
2021/07/10 09:14:01;;;;;;;10.43;4.53;;;;;;;30.21;44.43;100726.47;126286;1098;104192;-83
2021/07/10 09:16:34;;;;;;;9.47;4.27;;;;;;;29.97;40.75;100728.40;125261;1099;104310;-80
2021/07/10 09:19:07;;;;;;;10.75;4.58;;;;;;;29.89;41.66;100734.12;125397;1099;104168;-80
2021/07/10 09:21:45;;;;;;;14.97;4.93;;;;;;;29.87;40.49;100727.88;126333;1099;104134;-79
2021/07/10 09:24:17;;;;;;;13.60;5.10;;;;;;;29.95;40.82;100723.05;126229;1099;104239;-80
2021/07/10 09:26:50;;;;;;;11.90;5.33;;;;;;;30.02;40.23;100723.66;126347;1099;104185;-80
2021/07/10 09:29:23;;;;;;;11.17;5.40;;;;;;;30.03;40.04;100719.99;126282;1098;104259;-80
2021/07/10 09:31:59;;;;;;;12.00;5.30;;;;;;;30.07;39.44;100716.23;125397;1099;104275;-78
2021/07/10 09:34:35;;;;;;;12.17;5.27;;;;;;;30.21;40.11;100721.05;125354;1099;104210;-79
2021/07/10 09:37:07;;;;;;;10.67;5.43;;;;;;;30.33;39.57;100716.95;126302;1099;104255;-80
2021/07/10 09:39:43;;;;;;;12.15;5.03;;;;;;;30.38;39.51;100715.78;126241;1099;104233;-79
2021/07/10 09:42:15;;;;;;;12.30;5.30;;;;;;;30.36;39.61;100716.82;126338;1099;104147;-80
2021/07/10 09:44:50;;;;;;;13.77;5.30;;;;;;;30.33;39.52;100712.41;125210;1099;104268;-79
2021/07/10 09:47:28;;;;;;;13.37;5.33;;;;;;;30.25;39.35;100712.73;126342;1099;104213;-79
2021/07/10 09:50:00;;;;;;;12.47;5.20;;;;;;;30.23;39.63;100709.23;126320;1099;104149;-79
2021/07/10 09:52:35;;;;;;;10.63;5.00;;;;;;;30.22;39.36;100703.88;125261;1099;104184;-78
2021/07/10 09:55:09;;;;;;;12.50;5.40;;;;;;;30.26;39.87;100708.20;126269;1099;104632;-80
2021/07/10 09:57:42;;;;;;;11.17;5.20;;;;;;;30.27;39.52;100697.30;125269;1099;104585;-80
2021/07/10 10:00:16;;;;;;;12.23;5.10;;;;;;;30.36;39.67;100705.99;126336;1099;104159;-77
2021/07/10 10:02:49;;;;;;;12.00;5.33;;;;;;;30.33;39.58;100707.00;125426;1099;104169;-80
2021/07/10 10:05:20;;;;;;;;;;;;;;;30.25;37.71;100703.75;125265;1099;104147;-81
2021/07/10 10:07:53;;;;;;;11.57;5.10;;;;;;;30.23;39.02;100694.80;126313;1099;104229;-79
2021/07/10 10:10:31;;;;;;;13.45;5.28;;;;;;;30.29;39.42;100699.94;125332;1099;104143;-78
2021/07/10 10:13:18;;;;;;;10.05;5.10;;;;;;;30.32;38.90;100694.39;126137;1099;103999;-78
2021/07/10 10:15:51;;;;;;;11.93;5.17;;;;;;;30.32;38.84;100693.53;126290;1099;104153;-79
2021/07/10 10:18:25;;;;;;;12.80;5.50;;;;;;;30.37;38.35;100694.20;125175;1099;104163;-78
2021/07/10 10:20:56;;;;;;;15.10;4.90;;;;;;;30.49;38.52;100690.11;126289;1099;104589;-79
2021/07/10 10:23:26;;;;;;;10.47;5.23;;;;;;;30.58;38.09;100685.16;126337;1099;104165;-79
2021/07/10 10:25:58;;;;;;;8.30;5.10;;;;;;;30.65;38.26;100683.95;126228;1098;104165;-79
2021/07/10 10:28:34;;;;;;;12.70;5.00;;;;;;;30.70;38.54;100686.45;126374;1099;104205;-80
2021/07/10 10:31:05;;;;;;;12.17;5.60;;;;;;;30.72;38.61;100684.54;125397;1099;104386;-80
2021/07/10 10:33:37;;;;;;;13.03;5.20;;;;;;;30.71;38.55;100677.35;126313;1099;104290;-78
2021/07/10 10:36:08;;;;;;;11.30;5.40;;;;;;;30.79;38.16;100675.20;126294;1099;104178;-80
2021/07/10 10:38:38;;;;;;;13.37;5.53;;;;;;;30.77;38.16;100678.91;125372;1099;104191;-79
2021/07/10 10:41:10;;;;;;;12.13;4.90;;;;;;;30.76;38.17;100679.85;126389;1099;104191;-79
2021/07/10 10:43:44;;;;;;;9.60;4.97;;;;;;;30.62;36.50;100678.67;126330;1099;104251;-79
2021/07/10 10:46:19;;;;;;;8.70;4.90;;;;;;;30.58;36.90;100673.46;125301;1099;104188;-80
2021/07/10 10:48:50;;;;;;;12.63;4.63;;;;;;;30.60;37.28;100671.55;126338;1099;104146;-80
2021/07/10 10:51:33;;;;;;;9.13;4.43;;;;;;;30.70;36.69;100672.91;126373;1099;104203;-79
2021/07/10 10:54:28;;;;;;;11.50;4.72;;;;;;;30.70;36.92;100669.30;126304;1099;104198;-79
2021/07/10 10:57:09;;;;;;;9.20;4.50;;;;;;;30.73;36.81;100670.06;126246;1099;118934;-80
2021/07/10 10:59:41;;;;;;;11.27;4.30;;;;;;;30.71;36.42;100671.94;126266;1099;104409;-79
2021/07/10 11:02:35;;;;;;;14.73;4.72;;;;;;;30.72;36.82;100671.00;126387;1099;104153;-78
2021/07/10 11:05:06;;;;;;;7.60;4.50;;;;;;;30.75;37.00;100668.15;126207;1099;104158;-79
2021/07/10 11:07:38;;;;;;;9.40;4.77;;;;;;;30.68;35.98;100661.24;126316;1099;104241;-80
2021/07/10 11:10:15;;;;;;;9.63;4.43;;;;;;;30.67;35.91;100670.34;125275;1099;104146;-79
2021/07/10 11:12:59;;;;;;;14.07;5.20;;;;;;;30.69;36.28;100659.44;125373;1099;104302;-79
2021/07/10 11:15:43;;;;;;;11.63;4.60;;;;;;;30.67;35.90;100651.38;126261;1099;104198;-79
2021/07/10 11:18:47;;;;;;;14.47;5.30;;;;;;;30.72;36.00;100638.50;125253;1099;104246;-80
2021/07/10 11:21:44;;;;;;;7.30;4.40;;;;;;;30.78;36.47;100646.34;125215;1099;104160;-80
2021/07/10 11:24:28;;;;;;;9.93;4.60;;;;;;;30.72;35.98;100635.79;125627;1099;104220;-80
2021/07/10 11:27:26;;;;;;;12.53;4.60;;;;;;;30.72;36.13;100638.50;126218;1099;104191;-79